x

La Perouse Bank (46206) Wave Buoy

8:00 - Sat 28th Mar 2015 All times are PDT. -7 hours from GMT.

  • Sig Wave height 8.5ft
  • Peak Period 12s
  • Wind
    4mph
  • Sea Temp 51°f
  • Luft Temp 50°f
  • Sea Pressure 1023mb
  • La Perouse Bank
  • La Perouse Bank

More Historic Weather Station data

Upgrade to MSW Pro to gain access to the past 30 days of data for over 8000 Wavebouys and Weather Stations around the globe.

Join Pro

Comparision Forecast

View Surf forecast
   
Sa 03/28 8:00 8.5ft 12s 4
mph
1023mb 51f 50f
7:00 9.5ft 11s 9 13 mph 1022.4mb 51f 51f
6:00 10ft 8s 13 18 mph 1021.3mb 51f 51f
5:00 12ft 8s 18 22 mph 1020.2mb 51f 51f
4:00  -   -  25
mph
- - 51f
3:00  -   -  27
mph
1017.9mb - 51f
2:00 11ft 8s 29 36 mph 1016.8mb 51f 51f
1:00 11ft 13s 31 40 mph 1015.6mb 51f 51f
12:00 12ft 9s 31 40 mph 1014.6mb 51f 50f
Fr 03/27 11:00 12.5ft 11s 29 36 mph 1013.4mb 51f 50f
10:00 11ft 11s 31 38 mph 1011.8mb 51f 50f
9:00 10ft 12s 20 25 mph 1010.9mb 51f 51f
8:00 10ft 12s 22 29 mph 1010.7mb 51f 51f
7:00 10ft 12s 22 27 mph 1010.9mb 51f 52f
6:00 9ft 12s 18 20 mph 1011.2mb 51f 52f
5:00 8.5ft 13s 22 27 mph 1011.3mb 51f 52f
4:00 8ft 12s 18 22 mph 1012.6mb 51f 52f
3:00 8ft 13s 22 27 mph 1013mb 51f 52f
2:00 8ft 12s 20 25 mph 1013.8mb 51f 51f
1:00 8ft 13s 18 20 mph 1014.1mb 51f 51f
12:00 8.5ft 13s 16 20 mph 1014.7mb 51f 51f
11:00 8ft 12s 18 20 mph 1015.1mb 51f 52f
10:00 9.5ft 12s 16 20 mph 1015.3mb 51f 52f
9:00 9ft 13s 16 20 mph 1015.2mb 51f 52f
8:00 9ft 12s 18 22 mph 1015.2mb 51f 51f
7:00 9.5ft 12s 16 20 mph 1015.7mb 51f 51f
6:00 9ft 12s 13 18 mph 1015.7mb 51f 51f
5:00 8ft 11s 16 18 mph 1016.3mb 51f 51f
4:00 8ft 12s 13 18 mph 1017mb 51f 52f
3:00 8ft 11s 13 18 mph 1018mb 51f 52f
2:00 8ft 12s 11 13 mph 1018.9mb 51f 52f
1:00 8ft 12s 11 13 mph 1019.6mb 51f 52f
12:00 8.5ft 12s 11 13 mph 1020.5mb 51f 52f
Do 03/26 11:00 8ft 12s 13 16 mph 1021mb 51f 52f
10:00 8ft 12s 13 18 mph 1021mb 51f 52f
9:00 8ft 12s 11 13 mph 1021.3mb 51f 52f
8:00 8ft 12s 13 18 mph 1021.1mb 51f 52f
7:00 8ft 11s 13 18 mph 1021.5mb 51f 52f
6:00 8ft 12s 13 20 mph 1021.7mb 51f 51f
5:00 8ft 11s 13 18 mph 1022.1mb 51f 52f
4:00 8ft 11s 13 18 mph 1022.8mb 51f 52f
3:00 8.5ft 11s 16 20 mph 1023mb 51f 51f
2:00 9ft 12s 18 22 mph 1023.4mb 52f 52f
1:00 9ft 12s 18 22 mph 1023.7mb 52f 51f
12:00 9.5ft 12s 18 20 mph 1023.8mb 51f 52f
11:00 10ft 11s 22 27 mph 1023.7mb 51f 52f
10:00 9ft 11s 20 25 mph 1023.6mb 51f 51f
9:00 9.5ft 10s 18 20 mph 1023.5mb 51f 51f
7:00 9ft 11s 16 18 mph 1023.3mb 50f 51f
6:00 8ft 7s 18 22 mph 1023mb 50f 51f
5:00 8ft 11s 16 18 mph 1023.1mb 50f 51f
4:00 8ft 11s 13 18 mph 1023.4mb 50f 51f
3:00 8ft 11s 11 13 mph 1024.1mb 50f 51f
2:00 8ft 10s 13 16 mph 1023.7mb 50f 51f
1:00 8ft 10s 13 16 mph 1023.6mb 50f 51f
12:00 8ft 10s 16 20 mph 1022.8mb 50f 51f
Mi 03/25 11:00 9ft 10s 16 20 mph 1022.9mb 50f 51f
10:00 9.5ft 10s 18 20 mph 1022.4mb 50f 52f
8:00 10ft 10s 18 22 mph 1021.1mb 51f 52f
7:00 10ft 10s 18 22 mph 1020.6mb 51f 52f
6:00 9ft 9s 16 18 mph 1020.7mb 51f 52f
5:00 8ft 10s 13 16 mph 1020.8mb 51f 52f
4:00 7ft 8s 13 16 mph 1020.4mb 51f 53f
3:00 8.5ft 9s 9 11 mph 1020.3mb 51f 52f
2:00 8ft 8s 11 13 mph 1019.8mb 51f 52f
1:00 8ft 10s 9 11 mph 1019.3mb 51f 51f
12:00 8ft 8s 9 11 mph 1018.9mb 51f 51f
11:00 8.5ft 8s 9 11 mph 1018.3mb 51f 52f
10:00 9ft 8s 11 13 mph 1017.5mb 51f 52f
9:00 9ft 7s 11 13 mph 1016.6mb 51f 52f
8:00 10ft 7s 13 18 mph 1015.8mb 50f 52f
7:00 11ft 7s 13 18 mph 1015.3mb 51f 52f
6:00 10ft 7s 22 25 mph 1014.9mb 51f 51f
5:00  -   -  22
mph
- - -
4:00 11ft 8s 29 36 mph 1015.4mb 51f 49f
3:00  -   -  36
mph
1015.9mb - 48f
2:00 10.5ft 6s 34 40 mph 1017.1mb 50f 48f
1:00 9ft 6s 31 40 mph 1017.9mb 50f 49f
12:00 8ft 5s 29
mph
1018.7mb 50f 49f
Di 03/24 11:00 7.5ft 11s 29 36 mph 1019.1mb 50f 49f
10:00 7ft 11s 27 31 mph 1019.8mb 51f 49f
9:00 7.5ft 12s 22 27 mph 1020.7mb 51f 49f
8:00 7ft 11s 20 27 mph 1020.5mb 51f 51f
7:00 7ft 12s 18 22 mph 1020.8mb 51f 51f
6:00 7ft 11s 16 20 mph 1021.3mb 51f 50f
5:00 7ft 11s 13 16 mph 1022mb 51f 49f